sensor_id;sensor_type;location;lat;lon;timestamp;P1;durP1;ratioP1;P2;durP2;ratioP2
9034;SDS011;4552;43.422;24.592;2022-09-02T00:01:11;5.10;;;4.50;;
9034;SDS011;4552;43.422;24.592;2022-09-02T00:03:41;4.63;;;3.97;;
9034;SDS011;4552;43.422;24.592;2022-09-02T00:06:12;5.13;;;4.03;;
9034;SDS011;4552;43.422;24.592;2022-09-02T00:08:39;7.80;;;4.10;;
9034;SDS011;4552;43.422;24.592;2022-09-02T00:11:08;5.70;;;4.50;;
9034;SDS011;4552;43.422;24.592;2022-09-02T00:13:39;6.20;;;4.03;;
9034;SDS011;4552;43.422;24.592;2022-09-02T00:16:07;5.33;;;4.57;;
9034;SDS011;4552;43.422;24.592;2022-09-02T00:18:49;5.80;;;4.30;;
9034;SDS011;4552;43.422;24.592;2022-09-02T00:21:18;7.27;;;4.17;;
9034;SDS011;4552;43.422;24.592;2022-09-02T00:23:46;5.67;;;4.00;;
9034;SDS011;4552;43.422;24.592;2022-09-02T00:26:16;4.73;;;3.93;;
9034;SDS011;4552;43.422;24.592;2022-09-02T00:28:43;5.50;;;4.43;;
9034;SDS011;4552;43.422;24.592;2022-09-02T00:31:12;4.20;;;3.80;;
9034;SDS011;4552;43.422;24.592;2022-09-02T00:33:40;6.60;;;4.47;;
9034;SDS011;4552;43.422;24.592;2022-09-02T00:36:09;4.80;;;4.40;;
9034;SDS011;4552;43.422;24.592;2022-09-02T00:38:37;4.93;;;4.10;;
9034;SDS011;4552;43.422;24.592;2022-09-02T00:41:06;6.63;;;4.60;;
9034;SDS011;4552;43.422;24.592;2022-09-02T00:43:40;4.97;;;4.47;;
9034;SDS011;4552;43.422;24.592;2022-09-02T00:46:11;6.57;;;4.20;;
9034;SDS011;4552;43.422;24.592;2022-09-02T00:48:44;7.63;;;4.70;;
9034;SDS011;4552;43.422;24.592;2022-09-02T00:51:16;5.53;;;4.50;;
9034;SDS011;4552;43.422;24.592;2022-09-02T00:53:43;6.53;;;4.50;;
9034;SDS011;4552;43.422;24.592;2022-09-02T00:56:15;6.33;;;4.33;;
9034;SDS011;4552;43.422;24.592;2022-09-02T00:58:47;5.93;;;5.10;;
9034;SDS011;4552;43.422;24.592;2022-09-02T01:01:16;5.33;;;4.13;;
9034;SDS011;4552;43.422;24.592;2022-09-02T01:03:46;6.43;;;4.67;;
9034;SDS011;4552;43.422;24.592;2022-09-02T01:06:16;4.83;;;4.40;;
9034;SDS011;4552;43.422;24.592;2022-09-02T01:08:50;6.10;;;4.90;;
9034;SDS011;4552;43.422;24.592;2022-09-02T01:11:22;7.40;;;5.23;;
9034;SDS011;4552;43.422;24.592;2022-09-02T01:13:49;5.23;;;4.53;;
9034;SDS011;4552;43.422;24.592;2022-09-02T01:16:18;7.07;;;4.93;;
9034;SDS011;4552;43.422;24.592;2022-09-02T01:18:51;6.73;;;4.83;;
9034;SDS011;4552;43.422;24.592;2022-09-02T01:21:23;6.23;;;5.13;;
9034;SDS011;4552;43.422;24.592;2022-09-02T01:23:52;8.57;;;5.03;;
9034;SDS011;4552;43.422;24.592;2022-09-02T01:26:20;9.50;;;5.43;;
9034;SDS011;4552;43.422;24.592;2022-09-02T01:28:48;6.07;;;5.47;;
9034;SDS011;4552;43.422;24.592;2022-09-02T01:31:16;6.57;;;5.23;;
9034;SDS011;4552;43.422;24.592;2022-09-02T01:33:43;7.07;;;5.53;;
9034;SDS011;4552;43.422;24.592;2022-09-02T01:36:11;7.80;;;4.97;;
9034;SDS011;4552;43.422;24.592;2022-09-02T01:38:39;6.03;;;5.43;;
9034;SDS011;4552;43.422;24.592;2022-09-02T01:41:08;8.45;;;6.60;;
9034;SDS011;4552;43.422;24.592;2022-09-02T01:43:35;7.20;;;5.70;;
9034;SDS011;4552;43.422;24.592;2022-09-02T01:46:02;6.87;;;5.67;;
9034;SDS011;4552;43.422;24.592;2022-09-02T01:48:31;8.13;;;5.17;;
9034;SDS011;4552;43.422;24.592;2022-09-02T01:51:01;8.00;;;6.40;;
9034;SDS011;4552;43.422;24.592;2022-09-02T01:53:30;7.83;;;6.13;;
9034;SDS011;4552;43.422;24.592;2022-09-02T01:55:57;8.80;;;5.70;;
9034;SDS011;4552;43.422;24.592;2022-09-02T01:58:32;9.32;;;6.55;;
9034;SDS011;4552;43.422;24.592;2022-09-02T02:00:59;8.07;;;6.07;;
9034;SDS011;4552;43.422;24.592;2022-09-02T02:03:28;6.70;;;6.00;;
9034;SDS011;4552;43.422;24.592;2022-09-02T02:05:58;6.10;;;5.50;;
9034;SDS011;4552;43.422;24.592;2022-09-02T02:08:42;9.63;;;6.23;;
9034;SDS011;4552;43.422;24.592;2022-09-02T02:11:10;6.80;;;6.10;;
9034;SDS011;4552;43.422;24.592;2022-09-02T02:16:54;8.20;;;6.13;;
9034;SDS011;4552;43.422;24.592;2022-09-02T02:19:29;7.13;;;6.07;;
9034;SDS011;4552;43.422;24.592;2022-09-02T02:21:56;7.87;;;5.97;;
9034;SDS011;4552;43.422;24.592;2022-09-02T02:24:23;9.60;;;7.50;;
9034;SDS011;4552;43.422;24.592;2022-09-02T02:26:51;7.03;;;6.37;;
9034;SDS011;4552;43.422;24.592;2022-09-02T02:29:19;10.23;;;6.27;;
9034;SDS011;4552;43.422;24.592;2022-09-02T02:32:07;9.33;;;7.20;;
9034;SDS011;4552;43.422;24.592;2022-09-02T02:34:36;7.80;;;6.33;;
9034;SDS011;4552;43.422;24.592;2022-09-02T02:37:07;8.77;;;6.97;;
9034;SDS011;4552;43.422;24.592;2022-09-02T02:39:36;10.38;;;7.40;;
9034;SDS011;4552;43.422;24.592;2022-09-02T02:42:04;13.15;;;9.95;;
9034;SDS011;4552;43.422;24.592;2022-09-02T02:44:32;18.63;;;13.77;;
9034;SDS011;4552;43.422;24.592;2022-09-02T02:47:01;10.93;;;7.90;;
9034;SDS011;4552;43.422;24.592;2022-09-02T02:49:28;11.10;;;8.83;;
9034;SDS011;4552;43.422;24.592;2022-09-02T02:51:56;12.03;;;8.23;;
9034;SDS011;4552;43.422;24.592;2022-09-02T02:54:23;22.00;;;14.73;;
9034;SDS011;4552;43.422;24.592;2022-09-02T02:56:51;26.23;;;16.97;;
9034;SDS011;4552;43.422;24.592;2022-09-02T02:59:18;41.80;;;28.57;;
9034;SDS011;4552;43.422;24.592;2022-09-02T03:01:45;19.50;;;14.20;;
9034;SDS011;4552;43.422;24.592;2022-09-02T03:04:14;12.48;;;9.40;;
9034;SDS011;4552;43.422;24.592;2022-09-02T03:06:41;11.30;;;7.90;;
9034;SDS011;4552;43.422;24.592;2022-09-02T03:09:08;8.27;;;7.37;;
9034;SDS011;4552;43.422;24.592;2022-09-02T03:11:36;8.27;;;6.93;;
9034;SDS011;4552;43.422;24.592;2022-09-02T03:14:03;12.77;;;8.07;;
9034;SDS011;4552;43.422;24.592;2022-09-02T03:16:33;7.70;;;6.83;;
9034;SDS011;4552;43.422;24.592;2022-09-02T03:19:00;9.33;;;7.37;;
9034;SDS011;4552;43.422;24.592;2022-09-02T03:21:30;8.73;;;7.73;;
9034;SDS011;4552;43.422;24.592;2022-09-02T03:23:58;10.17;;;7.67;;
9034;SDS011;4552;43.422;24.592;2022-09-02T03:26:25;8.63;;;7.40;;
9034;SDS011;4552;43.422;24.592;2022-09-02T03:28:53;10.57;;;7.77;;
9034;SDS011;4552;43.422;24.592;2022-09-02T03:31:22;9.20;;;7.93;;
9034;SDS011;4552;43.422;24.592;2022-09-02T03:33:51;11.13;;;9.40;;
9034;SDS011;4552;43.422;24.592;2022-09-02T03:36:19;10.37;;;8.47;;
9034;SDS011;4552;43.422;24.592;2022-09-02T03:38:50;36.23;;;27.17;;
9034;SDS011;4552;43.422;24.592;2022-09-02T03:41:17;39.22;;;32.63;;
9034;SDS011;4552;43.422;24.592;2022-09-02T03:43:45;22.83;;;18.73;;
9034;SDS011;4552;43.422;24.592;2022-09-02T03:46:13;14.67;;;10.80;;
9034;SDS011;4552;43.422;24.592;2022-09-02T03:48:41;10.10;;;8.83;;
9034;SDS011;4552;43.422;24.592;2022-09-02T03:51:09;9.50;;;8.27;;
9034;SDS011;4552;43.422;24.592;2022-09-02T03:53:36;12.73;;;9.73;;
9034;SDS011;4552;43.422;24.592;2022-09-02T03:56:07;10.57;;;8.97;;
9034;SDS011;4552;43.422;24.592;2022-09-02T03:58:36;13.75;;;11.00;;
9034;SDS011;4552;43.422;24.592;2022-09-02T04:01:04;11.50;;;9.23;;
9034;SDS011;4552;43.422;24.592;2022-09-02T04:03:32;11.43;;;9.13;;
9034;SDS011;4552;43.422;24.592;2022-09-02T04:06:00;10.87;;;9.30;;
9034;SDS011;4552;43.422;24.592;2022-09-02T04:08:28;9.67;;;8.53;;
9034;SDS011;4552;43.422;24.592;2022-09-02T04:10:55;11.33;;;9.57;;
9034;SDS011;4552;43.422;24.592;2022-09-02T04:13:24;13.90;;;8.90;;
9034;SDS011;4552;43.422;24.592;2022-09-02T04:15:52;17.60;;;10.57;;
9034;SDS011;4552;43.422;24.592;2022-09-02T04:18:19;12.07;;;8.57;;
9034;SDS011;4552;43.422;24.592;2022-09-02T04:20:47;10.10;;;8.47;;
9034;SDS011;4552;43.422;24.592;2022-09-02T04:23:14;11.23;;;8.73;;
9034;SDS011;4552;43.422;24.592;2022-09-02T04:25:42;11.97;;;9.40;;
9034;SDS011;4552;43.422;24.592;2022-09-02T04:28:11;12.17;;;8.53;;
9034;SDS011;4552;43.422;24.592;2022-09-02T04:30:43;9.47;;;8.47;;
9034;SDS011;4552;43.422;24.592;2022-09-02T04:33:10;11.00;;;8.40;;
9034;SDS011;4552;43.422;24.592;2022-09-02T04:35:38;10.47;;;9.13;;
9034;SDS011;4552;43.422;24.592;2022-09-02T04:38:06;9.83;;;8.03;;
9034;SDS011;4552;43.422;24.592;2022-09-02T04:40:33;9.93;;;8.43;;
9034;SDS011;4552;43.422;24.592;2022-09-02T04:43:00;10.68;;;8.48;;
9034;SDS011;4552;43.422;24.592;2022-09-02T04:45:27;15.60;;;8.17;;
9034;SDS011;4552;43.422;24.592;2022-09-02T04:47:56;11.73;;;7.63;;
9034;SDS011;4552;43.422;24.592;2022-09-02T04:50:24;14.93;;;8.93;;
9034;SDS011;4552;43.422;24.592;2022-09-02T04:52:51;22.77;;;18.63;;
9034;SDS011;4552;43.422;24.592;2022-09-02T04:55:39;13.43;;;9.87;;
9034;SDS011;4552;43.422;24.592;2022-09-02T04:58:08;10.63;;;8.30;;
9034;SDS011;4552;43.422;24.592;2022-09-02T05:00:36;9.33;;;7.60;;
9034;SDS011;4552;43.422;24.592;2022-09-02T05:03:05;12.27;;;8.63;;
9034;SDS011;4552;43.422;24.592;2022-09-02T05:05:32;13.77;;;10.30;;
9034;SDS011;4552;43.422;24.592;2022-09-02T05:08:00;12.70;;;8.87;;
9034;SDS011;4552;43.422;24.592;2022-09-02T05:10:28;10.70;;;8.10;;
9034;SDS011;4552;43.422;24.592;2022-09-02T05:12:57;8.67;;;7.73;;
9034;SDS011;4552;43.422;24.592;2022-09-02T05:15:24;10.93;;;7.87;;
9034;SDS011;4552;43.422;24.592;2022-09-02T05:17:53;9.83;;;7.87;;
9034;SDS011;4552;43.422;24.592;2022-09-02T05:20:21;10.57;;;8.70;;
9034;SDS011;4552;43.422;24.592;2022-09-02T05:22:50;10.20;;;8.03;;
9034;SDS011;4552;43.422;24.592;2022-09-02T05:25:17;11.90;;;9.20;;
9034;SDS011;4552;43.422;24.592;2022-09-02T05:27:45;11.73;;;8.73;;
9034;SDS011;4552;43.422;24.592;2022-09-02T05:30:12;10.30;;;8.90;;
9034;SDS011;4552;43.422;24.592;2022-09-02T05:32:40;11.70;;;8.93;;
9034;SDS011;4552;43.422;24.592;2022-09-02T05:35:08;11.60;;;9.80;;
9034;SDS011;4552;43.422;24.592;2022-09-02T05:37:39;13.00;;;8.97;;
9034;SDS011;4552;43.422;24.592;2022-09-02T05:40:07;11.93;;;9.67;;
9034;SDS011;4552;43.422;24.592;2022-09-02T05:42:36;13.87;;;9.87;;
9034;SDS011;4552;43.422;24.592;2022-09-02T05:45:04;12.70;;;9.40;;
9034;SDS011;4552;43.422;24.592;2022-09-02T05:47:33;13.90;;;10.52;;
9034;SDS011;4552;43.422;24.592;2022-09-02T05:50:01;11.43;;;9.37;;
9034;SDS011;4552;43.422;24.592;2022-09-02T05:52:29;9.93;;;7.80;;
9034;SDS011;4552;43.422;24.592;2022-09-02T05:54:57;11.33;;;8.07;;
9034;SDS011;4552;43.422;24.592;2022-09-02T05:57:26;10.27;;;7.50;;
9034;SDS011;4552;43.422;24.592;2022-09-02T05:59:53;11.80;;;7.93;;
9034;SDS011;4552;43.422;24.592;2022-09-02T06:02:23;12.00;;;8.37;;
9034;SDS011;4552;43.422;24.592;2022-09-02T06:04:56;10.87;;;8.17;;
9034;SDS011;4552;43.422;24.592;2022-09-02T06:07:27;13.45;;;9.23;;
9034;SDS011;4552;43.422;24.592;2022-09-02T06:09:54;10.80;;;8.40;;
9034;SDS011;4552;43.422;24.592;2022-09-02T06:12:23;11.00;;;7.93;;
9034;SDS011;4552;43.422;24.592;2022-09-02T06:14:50;13.40;;;7.03;;
9034;SDS011;4552;43.422;24.592;2022-09-02T06:17:17;11.03;;;8.07;;
9034;SDS011;4552;43.422;24.592;2022-09-02T06:19:45;10.63;;;7.57;;
9034;SDS011;4552;43.422;24.592;2022-09-02T06:22:11;11.93;;;7.77;;
9034;SDS011;4552;43.422;24.592;2022-09-02T06:24:38;9.33;;;7.47;;
9034;SDS011;4552;43.422;24.592;2022-09-02T06:27:06;12.33;;;8.27;;
9034;SDS011;4552;43.422;24.592;2022-09-02T06:29:35;9.50;;;7.53;;
9034;SDS011;4552;43.422;24.592;2022-09-02T06:32:02;10.70;;;8.10;;
9034;SDS011;4552;43.422;24.592;2022-09-02T06:34:29;9.73;;;7.33;;
9034;SDS011;4552;43.422;24.592;2022-09-02T06:36:57;9.17;;;7.57;;
9034;SDS011;4552;43.422;24.592;2022-09-02T06:39:24;9.03;;;7.43;;
9034;SDS011;4552;43.422;24.592;2022-09-02T06:41:53;9.53;;;6.90;;
9034;SDS011;4552;43.422;24.592;2022-09-02T06:44:20;8.67;;;7.60;;
9034;SDS011;4552;43.422;24.592;2022-09-02T06:46:51;11.33;;;8.03;;
9034;SDS011;4552;43.422;24.592;2022-09-02T06:49:20;10.67;;;7.93;;
9034;SDS011;4552;43.422;24.592;2022-09-02T06:51:48;16.23;;;10.02;;
9034;SDS011;4552;43.422;24.592;2022-09-02T06:54:19;11.30;;;8.37;;
9034;SDS011;4552;43.422;24.592;2022-09-02T06:56:47;10.73;;;7.77;;
9034;SDS011;4552;43.422;24.592;2022-09-02T06:59:15;9.80;;;6.80;;
9034;SDS011;4552;43.422;24.592;2022-09-02T07:01:42;8.73;;;6.80;;
9034;SDS011;4552;43.422;24.592;2022-09-02T07:04:12;9.53;;;7.03;;
9034;SDS011;4552;43.422;24.592;2022-09-02T07:06:57;9.17;;;7.63;;
9034;SDS011;4552;43.422;24.592;2022-09-02T07:09:25;13.97;;;7.87;;
9034;SDS011;4552;43.422;24.592;2022-09-02T07:11:56;13.68;;;9.40;;
9034;SDS011;4552;43.422;24.592;2022-09-02T07:14:24;11.03;;;8.00;;
9034;SDS011;4552;43.422;24.592;2022-09-02T07:16:53;7.80;;;7.03;;
9034;SDS011;4552;43.422;24.592;2022-09-02T07:19:25;13.20;;;8.43;;
9034;SDS011;4552;43.422;24.592;2022-09-02T07:21:52;10.93;;;8.73;;
9034;SDS011;4552;43.422;24.592;2022-09-02T07:24:20;10.77;;;8.33;;
9034;SDS011;4552;43.422;24.592;2022-09-02T07:26:48;10.87;;;7.93;;
9034;SDS011;4552;43.422;24.592;2022-09-02T07:29:15;13.57;;;9.00;;
9034;SDS011;4552;43.422;24.592;2022-09-02T07:31:44;11.33;;;8.23;;
9034;SDS011;4552;43.422;24.592;2022-09-02T07:34:13;11.23;;;8.13;;
9034;SDS011;4552;43.422;24.592;2022-09-02T07:36:43;13.13;;;9.47;;
9034;SDS011;4552;43.422;24.592;2022-09-02T07:39:12;12.33;;;8.67;;
9034;SDS011;4552;43.422;24.592;2022-09-02T07:41:42;12.47;;;8.77;;
9034;SDS011;4552;43.422;24.592;2022-09-02T07:44:11;11.70;;;8.37;;
9034;SDS011;4552;43.422;24.592;2022-09-02T07:46:38;10.40;;;8.67;;
9034;SDS011;4552;43.422;24.592;2022-09-02T07:49:07;11.03;;;8.20;;
9034;SDS011;4552;43.422;24.592;2022-09-02T07:51:37;12.77;;;8.77;;
9034;SDS011;4552;43.422;24.592;2022-09-02T07:54:12;10.97;;;9.07;;
9034;SDS011;4552;43.422;24.592;2022-09-02T07:56:40;13.53;;;8.60;;
9034;SDS011;4552;43.422;24.592;2022-09-02T07:59:08;13.70;;;9.20;;
9034;SDS011;4552;43.422;24.592;2022-09-02T08:01:37;11.60;;;8.67;;
9034;SDS011;4552;43.422;24.592;2022-09-02T08:04:04;12.23;;;9.13;;
9034;SDS011;4552;43.422;24.592;2022-09-02T08:06:31;11.20;;;8.50;;
9034;SDS011;4552;43.422;24.592;2022-09-02T08:08:59;10.63;;;8.27;;
9034;SDS011;4552;43.422;24.592;2022-09-02T08:11:27;11.97;;;8.07;;
9034;SDS011;4552;43.422;24.592;2022-09-02T08:13:54;11.63;;;8.00;;
9034;SDS011;4552;43.422;24.592;2022-09-02T08:16:21;10.77;;;8.07;;
9034;SDS011;4552;43.422;24.592;2022-09-02T08:18:48;14.50;;;10.18;;
9034;SDS011;4552;43.422;24.592;2022-09-02T08:21:15;12.23;;;8.87;;
9034;SDS011;4552;43.422;24.592;2022-09-02T08:23:43;11.27;;;8.30;;
9034;SDS011;4552;43.422;24.592;2022-09-02T08:26:14;13.83;;;8.77;;
9034;SDS011;4552;43.422;24.592;2022-09-02T08:28:43;11.80;;;7.90;;
9034;SDS011;4552;43.422;24.592;2022-09-02T08:31:11;12.03;;;8.80;;
9034;SDS011;4552;43.422;24.592;2022-09-02T08:33:38;9.67;;;8.33;;
9034;SDS011;4552;43.422;24.592;2022-09-02T08:36:05;10.40;;;7.30;;
9034;SDS011;4552;43.422;24.592;2022-09-02T08:38:36;10.53;;;7.67;;
9034;SDS011;4552;43.422;24.592;2022-09-02T08:41:10;11.30;;;8.40;;
9034;SDS011;4552;43.422;24.592;2022-09-02T08:43:40;9.30;;;7.27;;
9034;SDS011;4552;43.422;24.592;2022-09-02T08:46:12;8.53;;;7.10;;
9034;SDS011;4552;43.422;24.592;2022-09-02T08:48:43;9.40;;;7.40;;
9034;SDS011;4552;43.422;24.592;2022-09-02T08:51:15;11.27;;;7.30;;
9034;SDS011;4552;43.422;24.592;2022-09-02T08:53:46;13.53;;;9.67;;
9034;SDS011;4552;43.422;24.592;2022-09-02T08:56:19;13.30;;;8.43;;
9034;SDS011;4552;43.422;24.592;2022-09-02T08:58:48;9.47;;;7.77;;
9034;SDS011;4552;43.422;24.592;2022-09-02T09:01:22;10.60;;;8.57;;
9034;SDS011;4552;43.422;24.592;2022-09-02T09:04:00;11.70;;;7.90;;
9034;SDS011;4552;43.422;24.592;2022-09-02T09:06:34;9.90;;;7.17;;
9034;SDS011;4552;43.422;24.592;2022-09-02T09:09:16;11.33;;;7.80;;
9034;SDS011;4552;43.422;24.592;2022-09-02T09:11:55;10.87;;;7.47;;
9034;SDS011;4552;43.422;24.592;2022-09-02T09:14:29;13.20;;;8.23;;
9034;SDS011;4552;43.422;24.592;2022-09-02T09:17:13;8.63;;;7.10;;
9034;SDS011;4552;43.422;24.592;2022-09-02T09:19:51;9.80;;;7.33;;
9034;SDS011;4552;43.422;24.592;2022-09-02T09:22:20;7.80;;;6.67;;
9034;SDS011;4552;43.422;24.592;2022-09-02T09:24:51;9.10;;;7.43;;
9034;SDS011;4552;43.422;24.592;2022-09-02T09:27:20;8.73;;;6.93;;
9034;SDS011;4552;43.422;24.592;2022-09-02T09:29:48;10.60;;;7.17;;
9034;SDS011;4552;43.422;24.592;2022-09-02T09:32:20;9.00;;;6.97;;
9034;SDS011;4552;43.422;24.592;2022-09-02T09:34:58;11.57;;;7.17;;
9034;SDS011;4552;43.422;24.592;2022-09-02T09:37:28;8.43;;;6.73;;
9034;SDS011;4552;43.422;24.592;2022-09-02T09:39:57;11.87;;;8.43;;
9034;SDS011;4552;43.422;24.592;2022-09-02T09:45:15;11.23;;;7.87;;
9034;SDS011;4552;43.422;24.592;2022-09-02T09:50:47;17.20;;;12.60;;
9034;SDS011;4552;43.422;24.592;2022-09-02T09:53:35;33.80;;;25.23;;
9034;SDS011;4552;43.422;24.592;2022-09-02T09:56:05;14.87;;;11.20;;
9034;SDS011;4552;43.422;24.592;2022-09-02T10:04:02;16.77;;;11.60;;
9034;SDS011;4552;43.422;24.592;2022-09-02T10:06:36;10.93;;;8.37;;
9034;SDS011;4552;43.422;24.592;2022-09-02T10:09:23;13.83;;;9.97;;
9034;SDS011;4552;43.422;24.592;2022-09-02T10:11:56;13.40;;;7.73;;
9034;SDS011;4552;43.422;24.592;2022-09-02T10:14:26;9.73;;;6.73;;
9034;SDS011;4552;43.422;24.592;2022-09-02T10:17:14;9.50;;;6.77;;
9034;SDS011;4552;43.422;24.592;2022-09-02T10:19:55;7.57;;;6.67;;
9034;SDS011;4552;43.422;24.592;2022-09-02T10:22:38;9.43;;;6.50;;
9034;SDS011;4552;43.422;24.592;2022-09-02T10:25:22;11.47;;;7.53;;
9034;SDS011;4552;43.422;24.592;2022-09-02T10:27:57;9.87;;;6.70;;
9034;SDS011;4552;43.422;24.592;2022-09-02T10:30:35;10.50;;;7.20;;
9034;SDS011;4552;43.422;24.592;2022-09-02T10:33:25;10.20;;;7.53;;
9034;SDS011;4552;43.422;24.592;2022-09-02T10:36:05;10.30;;;6.93;;
9034;SDS011;4552;43.422;24.592;2022-09-02T10:38:42;12.10;;;7.47;;
9034;SDS011;4552;43.422;24.592;2022-09-02T10:41:13;12.50;;;7.63;;
9034;SDS011;4552;43.422;24.592;2022-09-02T10:44:08;12.13;;;7.73;;
9034;SDS011;4552;43.422;24.592;2022-09-02T10:46:49;12.20;;;7.27;;
9034;SDS011;4552;43.422;24.592;2022-09-02T10:49:29;11.60;;;7.67;;
9034;SDS011;4552;43.422;24.592;2022-09-02T10:52:09;16.17;;;8.20;;
9034;SDS011;4552;43.422;24.592;2022-09-02T10:54:47;16.63;;;9.77;;
9034;SDS011;4552;43.422;24.592;2022-09-02T10:57:31;15.70;;;9.50;;
9034;SDS011;4552;43.422;24.592;2022-09-02T11:00:10;14.70;;;8.90;;
9034;SDS011;4552;43.422;24.592;2022-09-02T11:02:42;21.48;;;12.18;;
9034;SDS011;4552;43.422;24.592;2022-09-02T11:05:16;16.97;;;9.33;;
9034;SDS011;4552;43.422;24.592;2022-09-02T11:07:51;16.93;;;11.43;;
9034;SDS011;4552;43.422;24.592;2022-09-02T11:10:24;15.73;;;10.47;;
9034;SDS011;4552;43.422;24.592;2022-09-02T11:12:57;15.77;;;8.67;;
9034;SDS011;4552;43.422;24.592;2022-09-02T11:15:32;15.37;;;8.97;;
9034;SDS011;4552;43.422;24.592;2022-09-02T11:18:08;12.50;;;8.00;;
9034;SDS011;4552;43.422;24.592;2022-09-02T11:20:43;13.23;;;7.37;;
9034;SDS011;4552;43.422;24.592;2022-09-02T11:23:18;12.80;;;8.77;;
9034;SDS011;4552;43.422;24.592;2022-09-02T11:26:13;15.30;;;8.50;;
9034;SDS011;4552;43.422;24.592;2022-09-02T11:28:54;13.57;;;8.53;;
9034;SDS011;4552;43.422;24.592;2022-09-02T11:31:47;12.30;;;7.47;;
9034;SDS011;4552;43.422;24.592;2022-09-02T11:34:25;12.47;;;8.50;;
9034;SDS011;4552;43.422;24.592;2022-09-02T11:37:06;11.20;;;8.30;;
9034;SDS011;4552;43.422;24.592;2022-09-02T11:39:55;13.23;;;8.60;;
9034;SDS011;4552;43.422;24.592;2022-09-02T11:42:35;12.33;;;8.07;;
9034;SDS011;4552;43.422;24.592;2022-09-02T11:45:38;18.23;;;9.40;;
9034;SDS011;4552;43.422;24.592;2022-09-02T11:51:25;13.73;;;9.53;;
9034;SDS011;4552;43.422;24.592;2022-09-02T11:54:10;16.23;;;10.13;;
9034;SDS011;4552;43.422;24.592;2022-09-02T11:56:43;19.30;;;10.63;;
9034;SDS011;4552;43.422;24.592;2022-09-02T11:59:18;17.53;;;9.90;;
9034;SDS011;4552;43.422;24.592;2022-09-02T12:01:49;15.10;;;9.52;;
9034;SDS011;4552;43.422;24.592;2022-09-02T12:04:20;12.87;;;8.20;;
9034;SDS011;4552;43.422;24.592;2022-09-02T12:09:50;13.23;;;8.90;;
9034;SDS011;4552;43.422;24.592;2022-09-02T12:15:24;17.70;;;9.80;;
9034;SDS011;4552;43.422;24.592;2022-09-02T12:24:02;19.03;;;9.87;;
9034;SDS011;4552;43.422;24.592;2022-09-02T12:29:44;13.77;;;8.53;;
9034;SDS011;4552;43.422;24.592;2022-09-02T12:32:13;15.40;;;9.57;;
9034;SDS011;4552;43.422;24.592;2022-09-02T12:35:34;17.20;;;8.77;;
9034;SDS011;4552;43.422;24.592;2022-09-02T12:38:21;17.53;;;10.90;;
9034;SDS011;4552;43.422;24.592;2022-09-02T12:43:50;11.43;;;9.67;;
9034;SDS011;4552;43.422;24.592;2022-09-02T12:46:26;15.40;;;12.53;;
9034;SDS011;4552;43.422;24.592;2022-09-02T12:49:22;13.80;;;8.57;;
9034;SDS011;4552;43.422;24.592;2022-09-02T12:52:01;10.33;;;7.47;;
9034;SDS011;4552;43.422;24.592;2022-09-02T12:54:35;7.13;;;6.40;;
9034;SDS011;4552;43.422;24.592;2022-09-02T12:57:07;9.87;;;7.07;;
9034;SDS011;4552;43.422;24.592;2022-09-02T12:59:36;9.00;;;6.33;;
9034;SDS011;4552;43.422;24.592;2022-09-02T13:02:11;8.83;;;6.00;;
9034;SDS011;4552;43.422;24.592;2022-09-02T13:04:51;11.90;;;9.30;;
9034;SDS011;4552;43.422;24.592;2022-09-02T13:17:01;5.67;;;4.80;;
9034;SDS011;4552;43.422;24.592;2022-09-02T13:19:59;7.13;;;4.90;;
9034;SDS011;4552;43.422;24.592;2022-09-02T13:22:58;7.80;;;5.63;;
9034;SDS011;4552;43.422;24.592;2022-09-02T13:28:59;4.83;;;4.03;;
9034;SDS011;4552;43.422;24.592;2022-09-02T13:31:59;5.20;;;3.77;;
9034;SDS011;4552;43.422;24.592;2022-09-02T13:34:39;5.43;;;3.77;;
9034;SDS011;4552;43.422;24.592;2022-09-02T13:37:31;4.33;;;3.77;;
9034;SDS011;4552;43.422;24.592;2022-09-02T13:40:00;5.53;;;3.73;;
9034;SDS011;4552;43.422;24.592;2022-09-02T13:42:35;6.33;;;3.90;;
9034;SDS011;4552;43.422;24.592;2022-09-02T13:45:10;3.93;;;3.53;;
9034;SDS011;4552;43.422;24.592;2022-09-02T13:47:41;6.93;;;4.27;;
9034;SDS011;4552;43.422;24.592;2022-09-02T13:50:11;5.50;;;3.73;;
9034;SDS011;4552;43.422;24.592;2022-09-02T13:52:41;4.80;;;3.47;;
9034;SDS011;4552;43.422;24.592;2022-09-02T13:55:12;10.10;;;3.43;;
9034;SDS011;4552;43.422;24.592;2022-09-02T13:57:42;5.37;;;3.63;;
9034;SDS011;4552;43.422;24.592;2022-09-02T14:00:15;12.77;;;8.80;;
9034;SDS011;4552;43.422;24.592;2022-09-02T14:02:54;27.30;;;19.37;;
9034;SDS011;4552;43.422;24.592;2022-09-02T14:05:25;28.27;;;22.75;;
9034;SDS011;4552;43.422;24.592;2022-09-02T14:07:55;27.37;;;22.23;;
9034;SDS011;4552;43.422;24.592;2022-09-02T14:10:25;11.70;;;7.50;;
9034;SDS011;4552;43.422;24.592;2022-09-02T14:12:54;14.53;;;11.10;;
9034;SDS011;4552;43.422;24.592;2022-09-02T14:15:23;5.37;;;4.33;;
9034;SDS011;4552;43.422;24.592;2022-09-02T14:18:07;6.80;;;4.90;;
9034;SDS011;4552;43.422;24.592;2022-09-02T14:20:36;6.00;;;3.80;;
9034;SDS011;4552;43.422;24.592;2022-09-02T14:23:06;6.43;;;4.30;;
9034;SDS011;4552;43.422;24.592;2022-09-02T14:25:47;5.03;;;4.10;;
9034;SDS011;4552;43.422;24.592;2022-09-02T14:28:17;3.77;;;3.40;;
9034;SDS011;4552;43.422;24.592;2022-09-02T14:30:53;7.10;;;3.60;;
9034;SDS011;4552;43.422;24.592;2022-09-02T14:33:24;4.93;;;3.93;;
9034;SDS011;4552;43.422;24.592;2022-09-02T14:35:57;4.87;;;4.20;;
9034;SDS011;4552;43.422;24.592;2022-09-02T14:38:30;4.77;;;4.00;;
9034;SDS011;4552;43.422;24.592;2022-09-02T14:41:02;6.63;;;3.80;;
9034;SDS011;4552;43.422;24.592;2022-09-02T14:43:33;5.23;;;4.20;;
9034;SDS011;4552;43.422;24.592;2022-09-02T14:46:13;5.10;;;4.03;;
9034;SDS011;4552;43.422;24.592;2022-09-02T14:48:51;11.00;;;6.10;;
9034;SDS011;4552;43.422;24.592;2022-09-02T14:51:24;4.27;;;3.87;;
9034;SDS011;4552;43.422;24.592;2022-09-02T14:54:00;5.70;;;3.93;;
9034;SDS011;4552;43.422;24.592;2022-09-02T14:56:44;4.77;;;3.70;;
9034;SDS011;4552;43.422;24.592;2022-09-02T14:59:13;4.80;;;4.03;;
9034;SDS011;4552;43.422;24.592;2022-09-02T15:01:40;14.17;;;10.37;;
9034;SDS011;4552;43.422;24.592;2022-09-02T15:04:12;47.30;;;34.73;;
9034;SDS011;4552;43.422;24.592;2022-09-02T15:06:41;15.13;;;13.50;;
9034;SDS011;4552;43.422;24.592;2022-09-02T15:09:10;5.40;;;4.63;;
9034;SDS011;4552;43.422;24.592;2022-09-02T15:11:39;8.57;;;6.20;;
9034;SDS011;4552;43.422;24.592;2022-09-02T15:14:08;7.07;;;5.13;;
9034;SDS011;4552;43.422;24.592;2022-09-02T15:16:36;6.10;;;4.40;;
9034;SDS011;4552;43.422;24.592;2022-09-02T15:19:05;13.17;;;8.80;;
9034;SDS011;4552;43.422;24.592;2022-09-02T15:21:33;19.33;;;14.43;;
9034;SDS011;4552;43.422;24.592;2022-09-02T15:24:01;6.38;;;4.75;;
9034;SDS011;4552;43.422;24.592;2022-09-02T15:29:35;13.10;;;10.10;;
9034;SDS011;4552;43.422;24.592;2022-09-02T15:32:13;8.20;;;6.45;;
9034;SDS011;4552;43.422;24.592;2022-09-02T15:34:40;5.53;;;4.27;;
9034;SDS011;4552;43.422;24.592;2022-09-02T15:37:07;9.47;;;7.53;;
9034;SDS011;4552;43.422;24.592;2022-09-02T15:39:35;7.73;;;5.67;;
9034;SDS011;4552;43.422;24.592;2022-09-02T15:42:04;4.13;;;3.30;;
9034;SDS011;4552;43.422;24.592;2022-09-02T15:44:31;5.87;;;3.87;;
9034;SDS011;4552;43.422;24.592;2022-09-02T15:46:59;6.17;;;3.60;;
9034;SDS011;4552;43.422;24.592;2022-09-02T15:49:26;7.33;;;5.70;;
9034;SDS011;4552;43.422;24.592;2022-09-02T15:51:54;5.97;;;3.73;;
9034;SDS011;4552;43.422;24.592;2022-09-02T15:54:24;4.13;;;3.00;;
9034;SDS011;4552;43.422;24.592;2022-09-02T15:56:53;4.00;;;3.30;;
9034;SDS011;4552;43.422;24.592;2022-09-02T15:59:24;4.33;;;2.97;;
9034;SDS011;4552;43.422;24.592;2022-09-02T16:01:54;4.63;;;3.33;;
9034;SDS011;4552;43.422;24.592;2022-09-02T16:04:22;4.30;;;3.00;;
9034;SDS011;4552;43.422;24.592;2022-09-02T16:06:52;3.87;;;3.27;;
9034;SDS011;4552;43.422;24.592;2022-09-02T16:09:19;4.30;;;2.87;;
9034;SDS011;4552;43.422;24.592;2022-09-02T16:11:47;4.80;;;3.45;;